This is the latest recevied weather packets stored in our database for station/object K4AVM-13. If no packets are shown the sender has not sent any weather packets the latest 10 day(s).
| Time | Temp. | Humidity | Pressure | Rain* | Wind** | Luminosity | Snow |
|---|---|---|---|---|---|---|---|
| 1778078772 | 16.11° C | 94% | 1014.2 hPa | 3.05 mm | - | 36 W/m² | - |
| 1778078469 | 16.67° C | 93% | 1014.3 hPa | 3.05 mm | - | 40 W/m² | - |
| 1778078166 | 16.67° C | 91% | 1014.3 hPa | 3.05 mm | - | 40 W/m² | - |
| 1778077864 | 16.67° C | 90% | 1014.2 hPa | 1.27 mm | - | 62 W/m² | - |
| 1778077562 | 17.22° C | 88% | 1014.2 hPa | 1.78 mm | - | 73 W/m² | - |
| 1778077260 | 17.22° C | 88% | 1014.1 hPa | 1.78 mm | - | 84 W/m² | - |
| 1778076957 | 17.22° C | 87% | 1014 hPa | 1.27 mm | - | 116 W/m² | - |
| 1778076656 | 17.78° C | 86% | 1014.1 hPa | 3.05 mm | - | 134 W/m² | - |
| 1778076353 | 17.78° C | 83% | 1013.8 hPa | 1.78 mm | - | 86 W/m² | - |
| 1778076050 | 18.89° C | 78% | 1014 hPa | 0 mm | - | 54 W/m² | - |
| 1778075747 | 18.89° C | 74% | 1013.9 hPa | 0 mm | - | 69 W/m² | - |
| 1778075443 | 18.89° C | 73% | 1013.9 hPa | 0 mm | - | 66 W/m² | - |
| 1778075140 | 18.89° C | 73% | 1013.8 hPa | 0 mm | - | 85 W/m² | - |
| 1778074835 | 18.89° C | 75% | 1013.8 hPa | 0 mm | - | 74 W/m² | - |
| 1778074533 | 18.89° C | 75% | 1013.7 hPa | 0 mm | - | 62 W/m² | - |
| 1778074230 | 18.89° C | 75% | 1013.8 hPa | 0 mm | - | 53 W/m² | - |
| 1778073927 | 18.89° C | 75% | 1013.8 hPa | 0 mm | - | 103 W/m² | - |
| 1778073624 | 19.44° C | 75% | 1013.5 hPa | 0 mm | - | 122 W/m² | - |
| 1778073321 | 19.44° C | 75% | 1013.8 hPa | 0 mm | - | 176 W/m² | - |
| 1778073018 | 18.89° C | 75% | 1013.7 hPa | 0 mm | - | 130 W/m² | - |
| 1778072715 | 18.89° C | 75% | 1013.6 hPa | 0 mm | - | 103 W/m² | - |
| 1778072412 | 18.89° C | 76% | 1013.6 hPa | 0 mm | - | 206 W/m² | - |
| 1778072110 | 18.33° C | 77% | 1013.7 hPa | 0 mm | - | 170 W/m² | - |
| 1778071808 | 18.33° C | 77% | 1013.6 hPa | 0 mm | - | 87 W/m² | - |
| 1778071505 | 18.33° C | 78% | 1013.7 hPa | 0 mm | - | 124 W/m² | - |
* Rain latest hour (hover to see other rain measurements)
** Current wind speed in m/s (hover to see current wind gust speed)